createdAt,value
2019-04-20T00:00:40.324Z,7.75
2019-04-20T00:03:05.799Z,7.76
2019-04-20T00:05:35.017Z,7.69
2019-04-20T00:08:08.873Z,7.56
2019-04-20T00:10:43.308Z,7.42
2019-04-20T00:13:16.632Z,7.33
2019-04-20T00:15:34.600Z,7.39
2019-04-20T00:18:06.262Z,7.33
2019-04-20T00:20:35.896Z,7.25
2019-04-20T00:23:05.817Z,7.28
2019-04-20T00:26:02.696Z,7.37
2019-04-20T00:28:39.786Z,7.20
2019-04-20T00:31:09.743Z,7.22
2019-04-20T00:33:37.077Z,7.07
2019-04-20T00:35:52.838Z,7.17
2019-04-20T00:38:22.738Z,7.11
2019-04-20T00:40:58.266Z,7.19
2019-04-20T00:43:28.310Z,7.04
2019-04-20T00:45:58.583Z,7.01
2019-04-20T00:48:31.552Z,7.06
2019-04-20T00:51:06.950Z,7.08
2019-04-20T00:53:30.300Z,6.97
2019-04-20T00:55:51.021Z,7.02
2019-04-20T00:58:27.343Z,7.00
2019-04-20T01:01:12.786Z,6.91
2019-04-20T01:03:34.089Z,6.87
2019-04-20T01:06:24.736Z,6.86
2019-04-20T01:08:38.065Z,6.80
2019-04-20T01:11:06.362Z,6.77
2019-04-20T01:13:42.120Z,6.72
2019-04-20T01:16:08.733Z,6.67
2019-04-20T01:18:34.628Z,6.59
2019-04-20T01:21:06.721Z,6.53
2019-04-20T01:23:40.192Z,6.55
2019-04-20T01:26:08.828Z,6.49
2019-04-20T01:28:46.426Z,6.38
2019-04-20T01:31:14.685Z,6.29
2019-04-20T01:33:42.659Z,6.26
2019-04-20T01:36:19.598Z,6.26
2019-04-20T01:38:49.791Z,6.27
2019-04-20T01:41:03.382Z,6.28
2019-04-20T01:43:31.639Z,6.23
2019-04-20T01:46:07.922Z,6.12
2019-04-20T01:48:34.009Z,5.96
2019-04-20T01:51:07.268Z,5.85
2019-04-20T01:53:50.380Z,5.80
2019-04-20T01:56:24.388Z,5.73
2019-04-20T01:58:58.191Z,5.76
2019-04-20T02:01:31.131Z,5.75
2019-04-20T02:04:01.892Z,5.68
2019-04-20T02:06:41.530Z,5.69
2019-04-20T02:09:06.777Z,5.72
2019-04-20T02:11:37.631Z,5.74
2019-04-20T02:14:06.770Z,5.78
2019-04-20T02:16:39.292Z,5.69
2019-04-20T02:19:18.679Z,5.66
2019-04-20T02:21:47.692Z,5.48
2019-04-20T02:24:05.953Z,5.58
2019-04-20T02:26:32.610Z,5.58
2019-04-20T02:29:24.590Z,5.51
2019-04-20T02:34:39.754Z,5.50
2019-04-20T02:37:17.320Z,5.44
2019-04-20T02:39:46.723Z,5.34
2019-04-20T02:49:41.989Z,4.70
2019-04-20T02:52:25.038Z,4.66
2019-04-20T02:54:46.434Z,4.78
2019-04-20T02:57:15.086Z,4.82
2019-04-20T03:02:01.517Z,4.93
2019-04-20T03:04:20.356Z,4.99
2019-04-20T03:06:54.998Z,5.05
2019-04-20T03:09:32.490Z,5.12
2019-04-20T03:12:04.950Z,5.14
2019-04-20T03:14:29.282Z,5.16
2019-04-20T03:17:08.595Z,5.20
2019-04-20T03:19:25.052Z,5.24
2019-04-20T03:22:03.859Z,5.30
2019-04-20T03:24:38.877Z,5.25
2019-04-20T03:26:59.566Z,5.02
2019-04-20T03:29:38.362Z,4.84
2019-04-20T03:32:44.906Z,4.71
2019-04-20T03:35:00.571Z,4.78
2019-04-20T03:37:25.374Z,4.84
2019-04-20T03:39:42.343Z,4.88
2019-04-20T03:41:56.656Z,4.88
2019-04-20T03:44:26.460Z,4.88
2019-04-20T03:47:00.867Z,4.79
2019-04-20T03:49:49.454Z,4.78
2019-04-20T03:52:27.768Z,4.73
2019-04-20T03:55:07.600Z,4.63
2019-04-20T03:57:58.746Z,4.71
2019-04-20T04:00:36.472Z,4.65
2019-04-20T04:03:31.915Z,4.53
2019-04-20T04:05:48.148Z,4.41
2019-04-20T04:08:12.185Z,4.32
2019-04-20T04:10:50.531Z,4.34
2019-04-20T04:13:12.962Z,4.44
2019-04-20T04:15:48.786Z,4.40
2019-04-20T04:18:21.871Z,4.39
2019-04-20T04:20:53.258Z,4.41
2019-04-20T04:23:35.670Z,4.40
2019-04-20T04:26:05.824Z,4.45
2019-04-20T04:28:31.084Z,4.41
2019-04-20T04:31:04.163Z,4.42
2019-04-20T04:36:01.041Z,4.32
2019-04-20T04:38:39.615Z,4.29
2019-04-20T04:43:36.310Z,4.45
2019-04-20T04:45:44.891Z,4.57
2019-04-20T04:48:21.288Z,4.55
2019-04-20T04:50:52.196Z,4.65
2019-04-20T04:53:28.511Z,4.59
2019-04-20T04:55:52.398Z,4.48
2019-04-20T04:58:13.155Z,4.36
2019-04-20T05:00:42.479Z,4.51
2019-04-20T05:03:26.691Z,4.57
2019-04-20T05:06:07.211Z,4.71
2019-04-20T05:08:25.344Z,4.89
2019-04-20T05:10:47.900Z,5.04
2019-04-20T05:13:16.206Z,5.14
2019-04-20T05:15:59.301Z,5.24
2019-04-20T05:18:41.782Z,5.38
2019-04-20T05:21:05.907Z,5.50
2019-04-20T05:23:32.004Z,5.58
2019-04-20T05:26:22.277Z,5.77
2019-04-20T05:28:40.598Z,6.03
2019-04-20T05:31:03.055Z,6.22
2019-04-20T05:33:48.892Z,6.46
2019-04-20T05:36:18.521Z,6.61
2019-04-20T05:39:19.518Z,6.75
2019-04-20T05:41:16.911Z,6.87
2019-04-20T05:43:59.717Z,7.00
2019-04-20T05:46:33.594Z,7.12
2019-04-20T05:49:03.299Z,7.28
2019-04-20T05:51:36.566Z,7.41
2019-04-20T05:54:05.625Z,7.56
2019-04-20T05:56:35.717Z,7.75
2019-04-20T05:58:59.525Z,7.85
2019-04-20T06:01:34.619Z,7.91
2019-04-20T06:04:03.047Z,8.06
2019-04-20T06:06:33.139Z,8.08
2019-04-20T06:11:34.699Z,8.34
2019-04-20T06:13:59.016Z,8.39
2019-04-20T06:16:46.842Z,8.50
2019-04-20T06:19:24.362Z,8.63
2019-04-20T06:21:57.654Z,8.73
2019-04-20T06:24:26.741Z,8.81
2019-04-20T06:29:20.647Z,9.14
2019-04-20T06:31:54.160Z,9.17
2019-04-20T06:36:57.287Z,9.30
2019-04-20T06:47:08.913Z,9.54
2019-04-20T06:49:35.436Z,9.73
2019-04-20T06:52:12.629Z,9.94
2019-04-20T06:54:35.860Z,10.14
2019-04-20T06:57:07.243Z,10.18
2019-04-20T06:59:39.045Z,10.10
2019-04-20T07:02:11.863Z,10.26
2019-04-20T07:04:46.085Z,10.40
2019-04-20T07:07:10.166Z,10.58
2019-04-20T07:12:02.966Z,10.63
2019-04-20T07:14:27.588Z,10.72
2019-04-20T07:17:16.195Z,10.92
2019-04-20T07:19:47.473Z,11.08
2019-04-20T07:22:32.231Z,11.25
2019-04-20T07:24:56.783Z,11.07
2019-04-20T07:27:24.389Z,11.20
2019-04-20T07:30:07.897Z,11.36
2019-04-20T07:32:20.374Z,11.39
2019-04-20T07:34:55.654Z,11.50
2019-04-20T07:37:46.692Z,11.69
2019-04-20T07:39:58.876Z,11.63
2019-04-20T07:42:29.353Z,11.76
2019-04-20T07:45:04.697Z,11.83
2019-04-20T07:47:32.854Z,12.19
2019-04-20T07:49:49.769Z,12.37
2019-04-20T07:52:04.026Z,12.44
2019-04-20T07:55:12.495Z,12.62
2019-04-20T07:57:19.497Z,12.74
2019-04-20T07:59:53.327Z,12.74
2019-04-20T08:02:32.005Z,12.49
2019-04-20T08:04:51.285Z,12.58
2019-04-20T08:07:09.140Z,12.71
2019-04-20T08:09:44.161Z,12.91
2019-04-20T08:12:35.575Z,13.08
2019-04-20T08:15:04.753Z,13.25
2019-04-20T08:17:44.290Z,13.53
2019-04-20T08:19:59.516Z,13.59
2019-04-20T08:22:27.019Z,13.45
2019-04-20T08:24:52.761Z,13.71
2019-04-20T08:27:16.315Z,13.51
2019-04-20T08:30:03.630Z,13.40
2019-04-20T08:32:38.943Z,13.59
2019-04-20T08:35:15.389Z,13.64
2019-04-20T08:37:40.103Z,13.77
2019-04-20T08:40:12.768Z,13.78
2019-04-20T08:42:51.226Z,13.99
2019-04-20T08:45:31.711Z,14.10
2019-04-20T08:47:51.848Z,14.26
2019-04-20T08:50:27.204Z,14.42
2019-04-20T08:55:17.001Z,14.30
2019-04-20T08:57:26.908Z,14.44
2019-04-20T08:59:56.050Z,14.45
2019-04-20T09:02:25.822Z,14.52
2019-04-20T09:05:01.060Z,14.60
2019-04-20T09:07:28.319Z,14.82
2019-04-20T09:10:16.379Z,14.66
2019-04-20T09:12:42.149Z,14.71
2019-04-20T09:14:55.187Z,15.03
2019-04-20T09:17:36.629Z,14.88
2019-04-20T09:20:06.052Z,15.10
2019-04-20T09:22:46.653Z,15.02
2019-04-20T09:25:42.528Z,14.98
2019-04-20T09:27:46.774Z,14.99
2019-04-20T09:30:25.718Z,15.12
2019-04-20T09:33:14.613Z,15.28
2019-04-20T09:35:44.447Z,15.32
2019-04-20T09:38:11.578Z,15.37
2019-04-20T09:40:58.323Z,15.38
2019-04-20T09:42:57.740Z,15.51
2019-04-20T09:45:37.080Z,15.56
2019-04-20T09:47:58.843Z,15.61
2019-04-20T09:50:43.761Z,15.64
2019-04-20T09:53:14.202Z,15.84
2019-04-20T09:55:37.805Z,15.93
2019-04-20T09:58:12.348Z,15.70
2019-04-20T10:00:56.701Z,15.92
2019-04-20T10:03:12.932Z,15.96
2019-04-20T10:05:41.684Z,16.15
2019-04-20T10:08:11.371Z,16.17
2019-04-20T10:10:43.508Z,16.34
2019-04-20T10:13:11.149Z,16.39
2019-04-20T10:15:39.710Z,16.21
2019-04-20T10:18:08.043Z,16.36
2019-04-20T10:20:38.769Z,16.32
2019-04-20T10:23:06.800Z,16.19
2019-04-20T10:25:36.332Z,16.47
2019-04-20T10:28:05.522Z,16.63
2019-04-20T10:30:34.684Z,16.48
2019-04-20T10:33:03.587Z,16.72
2019-04-20T10:35:31.892Z,16.87
2019-04-20T10:38:05.421Z,16.95
2019-04-20T10:40:46.147Z,16.88
2019-04-20T10:43:04.629Z,16.93
2019-04-20T10:45:34.930Z,16.85
2019-04-20T10:48:03.440Z,16.85
2019-04-20T10:50:32.325Z,16.97
2019-04-20T10:53:01.620Z,16.93
2019-04-20T10:55:31.326Z,16.83
2019-04-20T10:57:59.788Z,17.09
2019-04-20T11:00:44.019Z,17.29
2019-04-20T11:03:13.589Z,17.38
2019-04-20T11:05:42.628Z,17.50
2019-04-20T11:08:12.767Z,17.47
2019-04-20T11:10:55.674Z,17.41
2019-04-20T11:13:12.187Z,17.38
2019-04-20T11:15:40.629Z,17.44
2019-04-20T11:18:09.230Z,17.57
2019-04-20T11:20:37.527Z,17.46
2019-04-20T11:23:06.627Z,17.52
2019-04-20T11:25:34.959Z,17.67
2019-04-20T11:28:04.017Z,17.26
2019-04-20T11:30:32.368Z,17.40
2019-04-20T11:33:00.631Z,17.41
2019-04-20T11:35:34.361Z,17.69
2019-04-20T11:37:58.888Z,17.58
2019-04-20T11:40:27.149Z,17.16
2019-04-20T11:42:55.496Z,17.24
2019-04-20T11:45:24.767Z,17.33
2019-04-20T11:47:53.756Z,17.53
2019-04-20T11:50:22.126Z,17.48
2019-04-20T11:52:51.461Z,17.76
2019-04-20T11:55:20.184Z,17.56
2019-04-20T11:57:49.428Z,17.65
2019-04-20T12:00:22.078Z,17.82
2019-04-20T12:03:09.817Z,17.76
2019-04-20T12:05:39.673Z,17.44
2019-04-20T12:08:07.050Z,17.28
2019-04-20T12:10:35.400Z,17.30
2019-04-20T12:13:03.822Z,17.45
2019-04-20T12:15:35.031Z,17.80
2019-04-20T12:18:02.170Z,17.73
2019-04-20T12:20:30.437Z,17.83
2019-04-20T12:23:02.198Z,17.72
2019-04-20T12:25:33.325Z,17.86
2019-04-20T12:28:02.346Z,17.94
2019-04-20T12:30:30.687Z,17.97
2019-04-20T12:33:01.902Z,17.95
2019-04-20T12:35:29.976Z,18.22
2019-04-20T12:37:58.934Z,18.01
2019-04-20T12:40:28.130Z,17.85
2019-04-20T12:42:57.218Z,18.09
2019-04-20T12:45:25.972Z,18.14
2019-04-20T12:47:55.482Z,18.07
2019-04-20T12:50:23.918Z,17.64
2019-04-20T12:52:52.536Z,17.81
2019-04-20T12:55:20.939Z,17.84
2019-04-20T12:57:50.308Z,17.92
2019-04-20T13:00:19.523Z,18.18
2019-04-20T13:02:47.867Z,18.12
2019-04-20T13:05:17.580Z,18.24
2019-04-20T13:07:49.717Z,18.04
2019-04-20T13:10:16.057Z,17.65
2019-04-20T13:12:58.462Z,17.68
2019-04-20T13:15:32.146Z,17.97
2019-04-20T13:18:01.299Z,17.72
2019-04-20T13:20:30.015Z,17.62
2019-04-20T13:22:59.998Z,17.78
2019-04-20T13:25:28.793Z,17.93
2019-04-20T13:27:57.032Z,17.96
2019-04-20T13:30:28.086Z,17.98
2019-04-20T13:32:57.337Z,17.49
2019-04-20T13:35:26.079Z,17.33
2019-04-20T13:37:54.481Z,17.85
2019-04-20T13:40:23.853Z,18.17
2019-04-20T13:42:52.229Z,17.72
2019-04-20T13:45:21.253Z,17.63
2019-04-20T13:47:50.841Z,17.49
2019-04-20T13:50:20.045Z,17.53
2019-04-20T13:52:48.910Z,17.82
2019-04-20T13:55:17.313Z,18.10
2019-04-20T13:57:50.165Z,18.14
2019-04-20T14:00:40.942Z,18.00
2019-04-20T14:03:11.347Z,17.93
2019-04-20T14:05:40.507Z,18.05
2019-04-20T14:08:09.752Z,18.01
2019-04-20T14:10:39.586Z,17.72
2019-04-20T14:13:13.598Z,17.67
2019-04-20T14:15:37.913Z,17.83
2019-04-20T14:18:06.933Z,18.01
2019-04-20T14:20:36.217Z,17.83
2019-04-20T14:23:05.258Z,18.13
2019-04-20T14:25:33.613Z,18.13
2019-04-20T14:28:02.817Z,18.14
2019-04-20T14:30:31.057Z,18.05
2019-04-20T14:32:59.398Z,18.00
2019-04-20T14:35:29.101Z,18.03
2019-04-20T14:37:57.633Z,17.86
2019-04-20T14:40:26.196Z,17.57
2019-04-20T14:42:56.762Z,17.71
2019-04-20T14:45:24.773Z,17.45
2019-04-20T14:47:54.019Z,17.80
2019-04-20T14:50:23.455Z,18.09
2019-04-20T14:52:51.789Z,18.21
2019-04-20T14:55:21.155Z,18.28
2019-04-20T14:57:50.108Z,18.16
2019-04-20T15:00:53.082Z,17.99
2019-04-20T15:03:28.322Z,18.14
2019-04-20T15:05:59.977Z,17.97
2019-04-20T15:08:28.395Z,17.91
2019-04-20T15:10:57.097Z,17.83
2019-04-20T15:13:26.662Z,17.81
2019-04-20T15:15:55.017Z,17.98
2019-04-20T15:18:33.972Z,17.64
2019-04-20T15:21:09.610Z,17.78
2019-04-20T15:23:37.878Z,17.23
2019-04-20T15:26:06.600Z,17.20
2019-04-20T15:28:34.884Z,17.08
2019-04-20T15:31:03.166Z,17.24
2019-04-20T15:33:32.734Z,17.41
2019-04-20T15:36:02.191Z,17.39
2019-04-20T15:38:31.347Z,17.67
2019-04-20T15:40:59.750Z,17.78
2019-04-20T15:43:28.174Z,17.81
2019-04-20T15:45:57.331Z,17.81
2019-04-20T15:48:26.031Z,17.93
2019-04-20T15:50:54.349Z,17.47
2019-04-20T15:53:23.897Z,17.66
2019-04-20T15:55:52.491Z,17.79
2019-04-20T15:58:20.756Z,17.70
2019-04-20T16:00:50.892Z,17.58
2019-04-20T16:03:27.545Z,17.40
2019-04-20T16:05:58.812Z,17.32
2019-04-20T16:08:32.396Z,17.33
2019-04-20T16:11:04.646Z,17.05
2019-04-20T16:13:37.545Z,16.93
2019-04-20T16:16:03.530Z,16.93
2019-04-20T16:18:32.859Z,16.85
2019-04-20T16:21:07.928Z,16.82
2019-04-20T16:23:32.879Z,16.74
2019-04-20T16:26:05.950Z,16.70
2019-04-20T16:28:35.383Z,16.50
2019-04-20T16:31:07.011Z,16.37
2019-04-20T16:33:34.526Z,16.30
2019-04-20T16:36:03.049Z,16.30
2019-04-20T16:38:31.387Z,16.22
2019-04-20T16:41:00.023Z,16.12
2019-04-20T16:43:32.663Z,16.22
2019-04-20T16:45:59.271Z,16.08
2019-04-20T16:48:28.297Z,16.10
2019-04-20T16:50:56.540Z,16.03
2019-04-20T16:53:24.806Z,15.97
2019-04-20T16:55:53.065Z,15.91
2019-04-20T16:58:21.737Z,15.95
2019-04-20T17:00:50.119Z,15.84
2019-04-20T17:03:19.553Z,15.73
2019-04-20T17:05:50.991Z,15.64
2019-04-20T17:08:18.742Z,15.57
2019-04-20T17:10:48.716Z,15.61
2019-04-20T17:13:28.413Z,15.56
2019-04-20T17:15:47.870Z,15.41
2019-04-20T17:18:16.203Z,15.35
2019-04-20T17:20:44.455Z,15.21
2019-04-20T17:23:13.105Z,15.27
2019-04-20T17:25:41.943Z,15.10
2019-04-20T17:28:26.857Z,15.00
2019-04-20T17:30:56.972Z,14.97
2019-04-20T17:33:36.297Z,14.69
2019-04-20T17:36:09.996Z,14.76
2019-04-20T17:38:37.630Z,14.59
2019-04-20T17:41:16.707Z,14.63
2019-04-20T17:43:49.321Z,14.61
2019-04-20T17:46:10.157Z,14.54
2019-04-20T17:48:43.209Z,14.34
2019-04-20T17:51:25.422Z,14.27
2019-04-20T17:53:52.769Z,14.17
2019-04-20T17:56:17.344Z,14.00
2019-04-20T17:58:46.120Z,13.92
2019-04-20T18:01:47.825Z,13.79
2019-04-20T18:04:35.431Z,13.72
2019-04-20T18:06:47.784Z,13.66
2019-04-20T18:09:33.268Z,13.59
2019-04-20T18:11:43.766Z,13.44
2019-04-20T18:14:24.156Z,13.27
2019-04-20T18:17:05.829Z,13.25
2019-04-20T18:19:19.376Z,13.12
2019-04-20T18:21:45.616Z,13.12
2019-04-20T18:24:31.318Z,13.02
2019-04-20T18:26:59.636Z,12.95
2019-04-20T18:29:32.847Z,12.73
2019-04-20T18:31:51.478Z,12.65
2019-04-20T18:34:25.257Z,12.58
2019-04-20T18:36:52.741Z,12.50
2019-04-20T18:39:29.085Z,12.37
2019-04-20T18:41:57.198Z,12.23
2019-04-20T18:44:27.676Z,12.17
2019-04-20T18:47:12.517Z,12.03
2019-04-20T18:49:37.524Z,12.09
2019-04-20T18:51:51.707Z,12.02
2019-04-20T18:54:23.965Z,12.06
2019-04-20T18:56:51.280Z,11.98
2019-04-20T18:59:23.429Z,11.90
2019-04-20T19:01:50.927Z,11.73
2019-04-20T19:04:19.726Z,11.68
2019-04-20T19:06:48.059Z,11.57
2019-04-20T19:09:21.578Z,11.52
2019-04-20T19:11:55.870Z,11.52
2019-04-20T19:14:33.526Z,11.46
2019-04-20T19:17:08.872Z,11.37
2019-04-20T19:19:34.259Z,11.33
2019-04-20T19:21:58.390Z,11.35
2019-04-20T19:24:30.895Z,11.24
2019-04-20T19:27:01.686Z,11.17
2019-04-20T19:29:34.547Z,11.10
2019-04-20T19:32:18.258Z,11.08
2019-04-20T19:34:41.794Z,10.94
2019-04-20T19:37:13.347Z,10.79
2019-04-20T19:39:43.713Z,10.63
2019-04-20T19:42:13.080Z,10.54
2019-04-20T19:44:42.345Z,10.43
2019-04-20T19:47:18.475Z,10.41
2019-04-20T19:49:37.026Z,10.21
2019-04-20T19:52:28.238Z,10.16
2019-04-20T19:54:48.451Z,10.14
2019-04-20T19:57:10.425Z,10.24
2019-04-20T19:59:35.691Z,10.27
2019-04-20T20:01:58.012Z,10.32
2019-04-20T20:04:26.299Z,10.24
2019-04-20T20:07:01.846Z,10.13
2019-04-20T20:09:25.826Z,10.09
2019-04-20T20:11:56.125Z,10.13
2019-04-20T20:14:30.605Z,10.16
2019-04-20T20:17:08.944Z,10.05
2019-04-20T20:19:38.091Z,9.87
2019-04-20T20:22:05.574Z,9.72
2019-04-20T20:24:25.180Z,9.75
2019-04-20T20:27:00.473Z,9.73
2019-04-20T20:29:30.521Z,9.58
2019-04-20T20:32:06.132Z,9.37
2019-04-20T20:34:30.969Z,9.21
2019-04-20T20:36:59.824Z,9.19
2019-04-20T20:39:27.679Z,9.35
2019-04-20T20:42:06.558Z,9.42
2019-04-20T20:44:33.135Z,9.34
2019-04-20T20:47:00.812Z,9.26
2019-04-20T20:49:48.806Z,9.26
2019-04-20T20:52:14.580Z,9.19
2019-04-20T20:54:36.418Z,9.18
2019-04-20T20:57:02.904Z,9.10
2019-04-20T20:59:35.838Z,9.00
2019-04-20T21:02:04.388Z,8.88
2019-04-20T21:04:23.771Z,8.76
2019-04-20T21:06:52.819Z,8.66
2019-04-20T21:09:24.168Z,8.73
2019-04-20T21:12:00.596Z,8.73
2019-04-20T21:14:27.182Z,8.63
2019-04-20T21:17:01.297Z,8.63
2019-04-20T21:19:41.865Z,8.60
2019-04-20T21:21:59.840Z,8.49
2019-04-20T21:24:23.692Z,8.49
2019-04-20T21:26:53.824Z,8.52
2019-04-20T21:29:31.763Z,8.51
2019-04-20T21:31:59.904Z,8.46
2019-04-20T21:34:23.651Z,8.39
2019-04-20T21:36:56.210Z,8.36
2019-04-20T21:39:34.589Z,8.30
2019-04-20T21:41:57.228Z,8.28
2019-04-20T21:44:28.712Z,8.15
2019-04-20T21:46:54.643Z,7.94
2019-04-20T21:49:35.889Z,7.86
2019-04-20T21:51:58.638Z,7.86
2019-04-20T21:54:22.335Z,7.84
2019-04-20T21:56:56.102Z,7.95
2019-04-20T21:59:28.039Z,7.91
2019-04-20T22:02:01.319Z,7.90
2019-04-20T22:04:22.901Z,7.84
2019-04-20T22:06:52.026Z,7.80
2019-04-20T22:09:20.485Z,7.78
2019-04-20T22:11:49.778Z,7.78
2019-04-20T22:14:22.471Z,7.72
2019-04-20T22:16:51.668Z,7.54
2019-04-20T22:19:30.672Z,7.48
2019-04-20T22:22:00.562Z,7.55
2019-04-20T22:24:34.297Z,7.56
2019-04-20T22:27:02.638Z,7.45
2019-04-20T22:29:18.395Z,7.37
2019-04-20T22:31:56.502Z,7.28
2019-04-20T22:34:20.966Z,7.26
2019-04-20T22:36:48.667Z,7.22
2019-04-20T22:39:39.654Z,7.26
2019-04-20T22:42:08.483Z,7.34
2019-04-20T22:44:34.828Z,7.11
2019-04-20T22:47:05.462Z,7.11
2019-04-20T22:49:48.183Z,7.12
2019-04-20T22:52:18.513Z,7.10
2019-04-20T22:54:52.146Z,7.07
2019-04-20T22:57:12.946Z,7.05
2019-04-20T22:59:42.168Z,7.07
2019-04-20T23:02:05.632Z,7.07
2019-04-20T23:04:33.187Z,7.07
2019-04-20T23:07:03.109Z,7.08
2019-04-20T23:09:34.133Z,7.03
2019-04-20T23:12:09.125Z,7.03
2019-04-20T23:14:32.145Z,7.05
2019-04-20T23:17:00.464Z,7.04
2019-04-20T23:19:39.533Z,7.03
2019-04-20T23:22:03.500Z,6.99
2019-04-20T23:24:29.225Z,7.02
2019-04-20T23:26:57.469Z,6.96
2019-04-20T23:29:29.571Z,6.91
2019-04-20T23:32:01.357Z,6.77
2019-04-20T23:34:30.139Z,6.63
2019-04-20T23:36:56.741Z,6.57
2019-04-20T23:39:30.151Z,6.58
2019-04-20T23:42:00.384Z,6.53
2019-04-20T23:44:29.434Z,6.50
2019-04-20T23:47:06.212Z,6.44
2019-04-20T23:49:50.618Z,6.34
2019-04-20T23:52:26.993Z,6.17
2019-04-20T23:54:33.998Z,6.11
2019-04-20T23:57:01.775Z,6.05
2019-04-20T23:59:35.775Z,6.00
